Hauptseite
METAR-TAF:

METAR-TAF

Flughäfen :

Flughafen Hannover-Langenhagen

Hannover, Deutschland

Breite: 52-28N, Länge: 009-41E, Höhe: 56 m

Beobachtung

Neuester Wetterbericht von vor 5 Minuten, um 01:50 UTC
Wind 8 kt aus Ost
Temperatur 18°C
Luftfeuchtigkeit 52%
Luftdruck 1011 hPa
Sichtweite 10 km oder mehr
keine Wolken unter 1500 m und keine Kumulonimbus oder Gewitterwolken

METAR: EDDV 210150Z 09008KT CAVOK 18/08 Q1011

Zeit: 03:55 (01:55 UTC)

Prognose

Neuester Wetterbericht von vor 2 Stunden und 55 Minuten, um 23:00 UTC
Gültige Prognose vom 21 um 00 UTC bis 21 um 24 UTC
Wind 7 kt aus Ost
Sichtweite 10 km oder mehr
keine Wolken unter 1500 m und keine Kumulonimbus oder Gewitterwolken

TAF: EDDV 202300Z 2100/2124 08007KT CAVOK

Wetterbeobachtungen und Prognosen von mehr als 4000 Flughäfen (METAR und TAF Bericht).

Die verfügbaren Stationen werden durch gelbe und rote Markierungen auf der Karte dargestellt.

Führen Sie die Maus auf sie, um den Namen der Station zu sehen.

Darauf klicken, um die Beobachtung von Wetterbeobachtungen und Prognosen zu sehen.

Um die Karte zu ändern : klicken Sie auf den grünen Tasten mit einem schwarzen Kreuz Zum Vergrößern, auf den grünen Button mit einem Gedankenstrich zu verkleinern, oder auf die grünen Pfeile für benachbarte Karten.


METAR-TAF: